Time;durP1;ratioP1;P1;durP2;ratioP2;P2;SDS_P1;SDS_P2;PMS_P1;PMS_P2;Temp;Humidity;BMP_temperature;BMP_pressure;BME280_temperature;BME280_humidity;BME280_pressure;Samples;Min_cycle;Max_cycle;Signal;HPM_P1;HPM_P2
2024/01/16 00:02:11;;;;;;;2.38;0.50;;;4.90;66.60;6.80;100640.00;;;;5032243;28;20204;-71
2024/01/16 00:04:40;;;;;;;2.33;0.63;;;4.90;66.60;6.80;100648.00;;;;5020573;28;20206;-71
2024/01/16 00:07:07;;;;;;;3.65;0.93;;;4.90;66.60;6.70;100655.00;;;;5030154;28;20291;-71
2024/01/16 00:09:35;;;;;;;2.70;0.60;;;4.90;66.60;6.70;100659.00;;;;5030404;28;20247;-71
2024/01/16 00:12:03;;;;;;;3.70;0.60;;;4.90;66.50;6.70;100657.00;;;;5032651;28;20350;-71
2024/01/16 00:14:31;;;;;;;2.95;0.45;;;4.80;66.40;6.70;100655.00;;;;5028550;28;20197;-71
2024/01/16 00:16:58;;;;;;;3.22;0.40;;;4.80;66.30;6.70;100658.00;;;;5030035;28;20200;-71
2024/01/16 00:19:26;;;;;;;4.43;0.80;;;4.80;66.40;6.70;100660.00;;;;5028860;28;20295;-72
2024/01/16 00:21:53;;;;;;;4.07;0.50;;;4.80;66.50;6.70;100665.00;;;;5032654;28;20220;-72
2024/01/16 00:24:20;;;;;;;3.85;0.88;;;4.80;66.60;6.70;100657.00;;;;5031106;28;20220;-71
2024/01/16 00:26:49;;;;;;;4.25;0.52;;;4.80;66.60;6.70;100652.00;;;;5032737;28;20291;-71
2024/01/16 00:29:16;;;;;;;2.92;0.40;;;4.80;66.60;6.70;100657.00;;;;5036625;28;20204;-71
2024/01/16 00:31:43;;;;;;;3.35;0.80;;;4.80;66.60;6.70;100645.00;;;;5033570;28;20192;-71
2024/01/16 00:34:10;;;;;;;2.00;0.50;;;4.80;66.60;6.80;100655.00;;;;5031516;28;20205;-71
2024/01/16 00:36:39;;;;;;;2.63;0.75;;;4.80;66.60;6.80;100661.00;;;;5032565;28;20197;-71
2024/01/16 00:39:07;;;;;;;2.67;0.68;;;4.80;66.80;6.80;100656.00;;;;5027538;28;20201;-71
2024/01/16 00:41:34;;;;;;;5.75;1.25;;;4.80;66.80;6.80;100656.00;;;;5030788;28;20208;-71
2024/01/16 00:44:01;;;;;;;4.88;0.63;;;4.80;66.60;6.80;100663.00;;;;5032345;28;21016;-71
2024/01/16 00:46:28;;;;;;;1.88;0.55;;;4.80;66.60;6.80;100667.00;;;;5036892;28;20208;-71
2024/01/16 00:48:55;;;;;;;2.05;0.47;;;4.80;66.60;6.80;100663.00;;;;5044728;28;20192;-71
2024/01/16 00:51:22;;;;;;;1.63;0.50;;;4.80;66.60;6.80;100669.00;;;;5032609;28;20226;-71
2024/01/16 00:53:50;;;;;;;2.65;0.55;;;4.90;66.60;6.70;100674.00;;;;5033548;28;20205;-71
2024/01/16 00:56:17;;;;;;;4.30;0.55;;;4.80;66.50;6.80;100680.00;;;;5032739;28;20283;-71
2024/01/16 00:58:44;;;;;;;3.03;0.43;;;4.80;66.50;6.80;100677.00;;;;5033171;28;20200;-71
2024/01/16 01:01:11;;;;;;;1.98;0.60;;;4.80;66.60;6.80;100689.00;;;;5032135;28;20204;-71
2024/01/16 01:03:38;;;;;;;1.52;0.50;;;4.80;66.60;6.80;100692.00;;;;5038620;28;20660;-71
2024/01/16 01:06:06;;;;;;;6.00;0.93;;;4.90;66.70;6.80;100689.00;;;;5042361;28;20196;-71
2024/01/16 01:08:33;;;;;;;2.90;0.40;;;4.90;66.70;6.80;100682.00;;;;5032234;28;20211;-71
2024/01/16 01:11:02;;;;;;;2.65;0.80;;;4.90;66.70;6.80;100692.00;;;;5032617;28;20713;-71
2024/01/16 01:13:29;;;;;;;3.38;0.70;;;4.90;66.70;6.80;100683.00;;;;5032850;28;20801;-71
2024/01/16 01:15:57;;;;;;;4.53;0.70;;;4.90;66.80;6.80;100683.00;;;;5030503;28;20220;-71
2024/01/16 01:18:24;;;;;;;3.33;0.77;;;4.90;67.50;6.80;100681.00;;;;5031040;28;20274;-71
2024/01/16 01:20:51;;;;;;;2.85;0.30;;;4.90;66.80;6.90;100678.00;;;;5039404;28;20231;-71
2024/01/16 01:23:18;;;;;;;2.85;0.70;;;5.00;67.00;6.90;100675.00;;;;5039669;28;20693;-71
2024/01/16 01:25:45;;;;;;;3.17;0.60;;;4.90;66.80;6.90;100673.00;;;;5030501;28;20206;-71
2024/01/16 01:28:14;;;;;;;2.75;0.52;;;5.00;66.90;6.90;100669.00;;;;5030935;28;20207;-71
2024/01/16 01:30:41;;;;;;;2.65;0.75;;;5.00;66.70;6.90;100671.00;;;;5027111;28;20234;-71
2024/01/16 01:33:08;;;;;;;2.92;0.35;;;5.00;67.30;6.90;100668.00;;;;5031266;28;20689;-71
2024/01/16 01:35:36;;;;;;;1.70;0.52;;;5.00;66.60;6.90;100667.00;;;;5033493;28;20674;-71
2024/01/16 01:38:03;;;;;;;2.05;0.68;;;5.00;66.40;6.90;100674.00;;;;5032631;28;20250;-71
2024/01/16 01:40:30;;;;;;;1.27;0.55;;;5.00;66.40;6.90;100671.00;;;;5032695;28;20283;-71
2024/01/16 01:42:57;;;;;;;2.42;0.52;;;5.00;66.40;6.90;100677.00;;;;5031113;28;20578;-71
2024/01/16 01:45:25;;;;;;;4.50;0.77;;;4.90;66.30;6.90;100680.00;;;;5020135;28;20311;-71
2024/01/16 01:47:52;;;;;;;2.33;0.80;;;4.90;66.30;6.90;100690.00;;;;5031738;28;20287;-71
2024/01/16 01:50:19;;;;;;;2.00;0.40;;;4.90;66.30;6.90;100690.00;;;;5031554;28;20220;-71
2024/01/16 01:52:47;;;;;;;2.42;0.77;;;4.90;66.40;6.90;100689.00;;;;5032385;28;20196;-71
2024/01/16 01:55:16;;;;;;;2.00;0.68;;;4.90;66.50;6.90;100695.00;;;;5037224;28;20203;-71
2024/01/16 01:57:44;;;;;;;1.88;0.60;;;4.90;66.60;6.90;100699.00;;;;5032145;28;20569;-71
2024/01/16 02:00:12;;;;;;;4.07;0.70;;;4.90;67.00;7.00;100698.00;;;;5031498;28;20238;-71
2024/01/16 02:02:42;;;;;;;2.08;0.73;;;5.00;66.80;7.00;100701.00;;;;5032514;28;20283;-70
2024/01/16 02:05:10;;;;;;;3.28;1.00;;;5.00;66.90;7.00;100705.00;;;;5030262;28;20197;-70
2024/01/16 02:07:38;;;;;;;3.20;0.80;;;5.00;67.00;7.00;100701.00;;;;5031888;28;20287;-70
2024/01/16 02:10:06;;;;;;;3.45;0.75;;;5.00;67.00;7.00;100699.00;;;;5031403;28;20704;-71
2024/01/16 02:12:33;;;;;;;3.40;1.30;;;5.00;67.00;7.00;100709.00;;;;5045085;28;20201;-70
2024/01/16 02:15:00;;;;;;;4.18;1.20;;;5.10;67.10;7.00;100703.00;;;;5051786;28;20199;-71
2024/01/16 02:17:27;;;;;;;3.40;0.50;;;5.10;67.20;7.00;100713.00;;;;5029137;28;20196;-71
2024/01/16 02:19:55;;;;;;;2.65;0.65;;;5.20;67.30;7.00;100707.00;;;;5030835;28;20230;-70
2024/01/16 02:22:27;;;;;;;1.75;0.30;;;5.20;67.30;7.00;100703.00;;;;5028496;28;20232;-71
2024/01/16 02:24:57;;;;;;;3.08;0.57;;;5.20;67.40;7.00;100698.00;;;;5030230;28;20216;-71
2024/01/16 02:27:24;;;;;;;2.40;0.20;;;5.30;67.40;7.10;100699.00;;;;5031734;28;20204;-70
2024/01/16 02:29:51;;;;;;;1.48;0.38;;;5.30;67.50;7.10;100698.00;;;;5047252;28;20211;-70
2024/01/16 02:32:18;;;;;;;2.03;0.60;;;5.30;67.50;7.20;100691.00;;;;5051827;28;20709;-70
2024/01/16 02:34:45;;;;;;;1.48;0.30;;;5.30;67.60;7.20;100697.00;;;;5034167;28;20193;-70
2024/01/16 02:37:12;;;;;;;0.80;0.30;;;5.40;67.70;7.30;100690.00;;;;5029868;28;20583;-70
2024/01/16 02:39:39;;;;;;;2.55;0.30;;;5.40;67.70;7.30;100682.00;;;;5030363;28;20287;-71
2024/01/16 02:42:08;;;;;;;1.17;0.20;;;5.40;67.70;7.30;100683.00;;;;5031005;28;20238;-70
2024/01/16 02:44:35;;;;;;;2.53;0.47;;;5.50;67.70;7.40;100680.00;;;;5019222;28;20192;-70
2024/01/16 02:47:02;;;;;;;2.72;0.60;;;5.50;67.70;7.40;100683.00;;;;5035444;28;20202;-71
2024/01/16 02:49:32;;;;;;;5.28;0.30;;;5.50;67.60;7.40;100691.00;;;;5033942;28;20646;-71
2024/01/16 02:51:59;;;;;;;0.80;0.20;;;5.50;67.50;7.40;100693.00;;;;5029187;28;20224;-71
2024/01/16 02:54:26;;;;;;;3.42;0.50;;;5.50;67.40;7.50;100693.00;;;;5032258;28;20700;-71
2024/01/16 02:56:53;;;;;;;1.85;0.65;;;5.60;67.40;7.50;100689.00;;;;5034878;28;20200;-70
2024/01/16 02:59:21;;;;;;;3.05;0.30;;;5.60;67.30;7.50;100684.00;;;;5033143;28;20661;-71
2024/01/16 03:01:48;;;;;;;1.42;0.50;;;5.60;67.20;7.50;100693.00;;;;5035772;28;20653;-71
2024/01/16 03:04:15;;;;;;;1.95;0.40;;;5.60;67.20;7.50;100689.00;;;;5037388;28;20208;-71
2024/01/16 03:06:42;;;;;;;2.53;0.57;;;5.60;67.10;7.50;100695.00;;;;5055382;28;20636;-71
2024/01/16 03:09:09;;;;;;;1.23;0.30;;;5.60;67.10;7.50;100694.00;;;;5035733;28;20200;-70
2024/01/16 03:11:36;;;;;;;2.75;0.70;;;5.60;67.00;7.60;100695.00;;;;5034882;28;20605;-71
2024/01/16 03:14:03;;;;;;;1.02;0.30;;;5.60;67.00;7.50;100701.00;;;;5034999;28;20207;-71
2024/01/16 03:16:32;;;;;;;0.98;0.30;;;5.60;67.10;7.60;100697.00;;;;5037639;28;20654;-70
2024/01/16 03:18:59;;;;;;;0.47;0.20;;;5.60;67.10;7.60;100706.00;;;;5033384;28;20192;-71
2024/01/16 03:21:26;;;;;;;2.42;0.63;;;5.60;67.10;7.60;100707.00;;;;5053915;28;20207;-70
2024/01/16 03:23:54;;;;;;;5.60;0.85;;;5.60;67.10;7.60;100698.00;;;;5040218;28;20224;-71
2024/01/16 03:26:21;;;;;;;1.60;0.60;;;5.70;67.10;7.70;100701.00;;;;5021301;28;20198;-71
2024/01/16 03:28:49;;;;;;;4.07;0.32;;;5.70;67.10;7.70;100700.00;;;;5033619;28;20192;-70
2024/01/16 03:31:17;;;;;;;1.63;0.35;;;5.70;67.00;7.70;100703.00;;;;5031831;28;20310;-70
2024/01/16 03:33:46;;;;;;;0.63;0.30;;;5.70;67.00;7.70;100709.00;;;;5033606;28;20274;-70
2024/01/16 03:36:13;;;;;;;1.10;0.40;;;5.70;66.90;7.70;100711.00;;;;5033672;28;20210;-70
2024/01/16 03:38:40;;;;;;;2.38;0.40;;;5.70;67.00;7.70;100713.00;;;;5029063;28;20231;-70
2024/01/16 03:41:07;;;;;;;0.63;0.45;;;5.70;66.90;7.70;100710.00;;;;5014734;28;20203;-70
2024/01/16 03:43:35;;;;;;;1.70;0.30;;;5.70;66.80;7.70;100705.00;;;;5032553;28;20543;-70
2024/01/16 03:46:02;;;;;;;1.13;0.40;;;5.70;66.80;7.70;100704.00;;;;5037649;28;20196;-70
2024/01/16 03:48:29;;;;;;;6.00;0.77;;;5.70;66.80;7.70;100700.00;;;;5033033;28;20573;-71
2024/01/16 03:50:57;;;;;;;0.68;0.35;;;5.70;66.80;7.70;100699.00;;;;5034485;28;20230;-71
2024/01/16 03:53:25;;;;;;;6.85;0.40;;;5.70;66.80;7.70;100697.00;;;;5037271;28;20581;-71
2024/01/16 03:55:52;;;;;;;2.05;0.32;;;5.70;66.80;7.70;100701.00;;;;5044821;28;20188;-71
2024/01/16 03:58:19;;;;;;;1.45;0.20;;;5.70;66.70;7.70;100694.00;;;;5033652;28;20296;-71
2024/01/16 04:00:50;;;;;;;0.88;0.30;;;5.70;66.60;7.70;100695.00;;;;5033843;28;20200;-70
2024/01/16 04:03:17;;;;;;;1.67;0.25;;;5.70;66.60;7.60;100691.00;;;;5026318;28;20201;-71
2024/01/16 04:05:44;;;;;;;2.78;0.95;;;5.70;66.60;7.60;100691.00;;;;5025665;28;20207;-70
2024/01/16 04:08:13;;;;;;;1.25;0.40;;;5.70;66.60;7.60;100694.00;;;;5033233;28;20210;-70
2024/01/16 04:10:40;;;;;;;5.65;0.88;;;5.70;66.60;7.60;100691.00;;;;5038867;28;20199;-70
2024/01/16 04:13:07;;;;;;;1.27;0.30;;;5.70;66.60;7.60;100689.00;;;;5043303;28;20250;-70
2024/01/16 04:15:34;;;;;;;4.00;0.60;;;5.60;66.50;7.60;100681.00;;;;5034402;28;20208;-70
2024/01/16 04:18:01;;;;;;;1.15;0.25;;;5.60;66.50;7.60;100677.00;;;;5033140;28;20192;-70
2024/01/16 04:20:30;;;;;;;3.13;0.47;;;5.70;66.60;7.60;100678.00;;;;5034267;28;20283;-70
2024/01/16 04:22:58;;;;;;;2.65;0.80;;;5.60;66.70;7.60;100672.00;;;;5034206;28;20259;-71
2024/01/16 04:25:26;;;;;;;1.63;0.45;;;5.60;66.70;7.60;100672.00;;;;5033897;28;20220;-70
2024/01/16 04:27:53;;;;;;;2.03;0.40;;;5.70;66.70;7.60;100673.00;;;;5031322;28;20199;-71
2024/01/16 04:30:21;;;;;;;3.67;0.40;;;5.70;66.80;7.70;100676.00;;;;5023114;28;20199;-70
2024/01/16 04:32:48;;;;;;;1.65;0.30;;;5.70;66.80;7.70;100688.00;;;;5028681;28;20362;-71
2024/01/16 04:35:15;;;;;;;2.70;0.55;;;5.70;66.80;7.70;100685.00;;;;5030529;28;20243;-71
2024/01/16 04:37:42;;;;;;;2.33;0.50;;;5.70;66.80;7.70;100679.00;;;;5032048;28;20199;-70
2024/01/16 04:40:11;;;;;;;1.58;0.50;;;5.70;66.80;7.70;100679.00;;;;5033137;28;20204;-70
2024/01/16 04:42:39;;;;;;;1.02;0.45;;;5.70;66.70;7.70;100684.00;;;;5031433;28;20684;-70
2024/01/16 04:45:07;;;;;;;2.67;0.32;;;5.70;66.60;7.70;100682.00;;;;5039679;28;20748;-71
2024/01/16 04:47:34;;;;;;;1.50;0.60;;;5.70;66.70;7.70;100684.00;;;;5027975;28;20204;-71
2024/01/16 04:50:01;;;;;;;2.67;0.50;;;5.70;66.80;7.70;100678.00;;;;5030538;28;20204;-70
2024/01/16 04:52:28;;;;;;;2.88;0.52;;;5.70;66.80;7.70;100665.00;;;;5031810;28;20693;-70
2024/01/16 04:54:56;;;;;;;1.10;0.55;;;5.70;66.80;7.70;100676.00;;;;5031184;28;20204;-71
2024/01/16 04:57:23;;;;;;;2.50;0.52;;;5.70;66.80;7.70;100666.00;;;;5032642;28;20599;-70
2024/01/16 04:59:51;;;;;;;1.80;0.30;;;5.70;66.80;7.70;100675.00;;;;5027768;28;20219;-71
2024/01/16 05:02:18;;;;;;;1.45;0.68;;;5.70;66.80;7.70;100672.00;;;;5035578;28;20200;-71
2024/01/16 05:04:49;;;;;;;0.68;0.50;;;5.70;66.80;7.70;100670.00;;;;5033315;28;20292;-70
2024/01/16 05:07:16;;;;;;;2.05;0.82;;;5.70;66.80;7.70;100661.00;;;;5032845;28;20207;-70
2024/01/16 05:09:46;;;;;;;1.88;0.57;;;5.70;66.80;7.70;100656.00;;;;5031808;28;20215;-70
2024/01/16 05:12:13;;;;;;;2.67;0.63;;;5.70;66.80;7.70;100660.00;;;;5031133;28;20224;-70
2024/01/16 05:14:40;;;;;;;1.30;0.68;;;5.80;66.80;7.70;100657.00;;;;5032614;28;20295;-70
2024/01/16 05:17:08;;;;;;;2.08;0.68;;;5.80;66.80;7.60;100648.00;;;;5032705;28;20658;-70
2024/01/16 05:19:35;;;;;;;2.42;0.60;;;5.70;66.70;7.70;100652.00;;;;5033926;28;20219;-71
2024/01/16 05:22:03;;;;;;;1.88;0.80;;;5.70;66.80;7.60;100643.00;;;;5032328;28;20239;-71
2024/01/16 05:24:31;;;;;;;2.60;0.68;;;5.70;66.80;7.60;100643.00;;;;5032650;28;20331;-70
2024/01/16 05:26:58;;;;;;;2.17;0.70;;;5.70;66.80;7.70;100640.00;;;;5031208;28;20207;-71
2024/01/16 05:29:25;;;;;;;1.50;0.68;;;5.70;66.80;7.60;100632.00;;;;5028961;28;20854;-71
2024/01/16 05:31:52;;;;;;;1.48;0.82;;;5.70;66.80;7.60;100629.00;;;;5030953;28;20311;-70
2024/01/16 05:34:20;;;;;;;2.70;0.85;;;5.70;66.80;7.60;100628.00;;;;5025845;28;20226;-71
2024/01/16 05:36:47;;;;;;;3.72;1.45;;;5.70;66.80;7.70;100630.00;;;;5039252;28;20266;-71
2024/01/16 05:39:14;;;;;;;1.73;1.00;;;5.80;66.80;7.70;100640.00;;;;5029826;28;20199;-71
2024/01/16 05:41:41;;;;;;;2.63;0.80;;;5.80;66.80;7.70;100635.00;;;;5031707;28;20202;-71
2024/01/16 05:44:08;;;;;;;1.73;0.70;;;5.80;66.80;7.70;100637.00;;;;5029059;28;20684;-71
2024/01/16 05:46:35;;;;;;;2.08;0.70;;;5.80;66.80;7.70;100635.00;;;;5030639;28;20200;-70
2024/01/16 05:49:03;;;;;;;2.75;0.93;;;5.80;66.90;7.70;100634.00;;;;5028699;28;20283;-71
2024/01/16 05:51:31;;;;;;;3.47;1.40;;;5.80;66.90;7.70;100637.00;;;;5030948;28;20274;-71
2024/01/16 05:53:58;;;;;;;5.10;1.15;;;5.80;66.80;7.70;100628.00;;;;5033751;28;20200;-71
2024/01/16 05:56:25;;;;;;;4.18;1.27;;;5.80;66.90;7.70;100631.00;;;;5030841;28;20199;-71
2024/01/16 05:58:53;;;;;;;2.53;1.27;;;5.80;66.90;7.70;100630.00;;;;5028537;28;20692;-71
2024/01/16 06:01:20;;;;;;;2.97;1.20;;;5.80;66.90;7.80;100615.00;;;;5028747;28;20211;-71
2024/01/16 06:03:48;;;;;;;3.10;1.70;;;5.80;66.90;7.80;100620.00;;;;5027681;28;20291;-71
2024/01/16 06:06:16;;;;;;;7.72;1.30;;;5.80;66.90;7.80;100618.00;;;;5029710;28;20216;-71
2024/01/16 06:08:44;;;;;;;1.73;1.17;;;5.90;66.90;7.70;100608.00;;;;5029347;28;20223;-71
2024/01/16 06:11:12;;;;;;;3.67;1.90;;;5.90;67.00;7.80;100614.00;;;;5041408;28;20208;-71
2024/01/16 06:13:39;;;;;;;1.80;1.38;;;5.80;66.90;7.80;100617.00;;;;5019039;28;20665;-72
2024/01/16 06:16:08;;;;;;;6.35;1.90;;;5.90;67.00;7.80;100615.00;;;;5028360;28;20196;-71
2024/01/16 06:18:35;;;;;;;3.58;1.75;;;5.90;67.60;7.80;100619.00;;;;5026301;28;20196;-71
2024/01/16 06:21:02;;;;;;;4.78;1.95;;;5.90;66.90;7.80;100626.00;;;;5029320;28;20196;-71
2024/01/16 06:23:30;;;;;;;2.00;1.65;;;5.90;66.90;7.80;100615.00;;;;5029949;28;20251;-71
2024/01/16 06:25:58;;;;;;;3.00;1.70;;;5.90;66.90;7.80;100611.00;;;;5028713;28;20731;-71
2024/01/16 06:28:24;;;;;;;3.08;1.90;;;5.90;67.00;7.90;100618.00;;;;5030631;28;20673;-71
2024/01/16 06:30:51;;;;;;;3.90;2.10;;;5.90;67.00;7.90;100629.00;;;;5030486;28;20637;-71
2024/01/16 06:33:18;;;;;;;3.15;1.80;;;5.90;67.00;7.90;100625.00;;;;5029691;28;20224;-71
2024/01/16 06:35:45;;;;;;;2.92;1.90;;;5.90;67.00;7.90;100621.00;;;;5028365;28;20677;-71
2024/01/16 06:38:12;;;;;;;3.03;2.00;;;5.90;66.90;7.90;100625.00;;;;5026711;28;20204;-71
2024/01/16 06:40:39;;;;;;;3.40;2.03;;;5.90;67.00;7.90;100626.00;;;;5029166;28;20203;-71
2024/01/16 06:43:08;;;;;;;2.97;1.83;;;5.90;67.00;7.90;100632.00;;;;5027683;28;20204;-71
2024/01/16 06:45:35;;;;;;;3.92;2.45;;;6.00;67.00;7.90;100634.00;;;;5029457;28;20196;-71
2024/01/16 06:48:03;;;;;;;3.28;2.15;;;6.00;67.00;7.90;100635.00;;;;5028851;28;20669;-71
2024/01/16 06:50:29;;;;;;;4.57;2.15;;;5.90;66.90;7.90;100637.00;;;;5029516;28;20195;-71
2024/01/16 06:52:56;;;;;;;3.08;2.55;;;6.00;67.00;7.90;100637.00;;;;5029651;28;20219;-71
2024/01/16 06:55:23;;;;;;;2.00;1.65;;;6.00;67.00;7.90;100630.00;;;;5029227;28;20219;-71
2024/01/16 06:57:51;;;;;;;3.38;1.80;;;6.00;67.70;7.90;100630.00;;;;5017812;28;20193;-71
2024/01/16 07:00:22;;;;;;;4.03;2.22;;;6.00;66.90;7.90;100631.00;;;;5033368;28;20446;-71
2024/01/16 07:02:51;;;;;;;3.60;1.75;;;6.00;67.20;8.00;100631.00;;;;5032762;28;20197;-72
2024/01/16 07:05:18;;;;;;;3.58;1.70;;;6.00;67.30;8.00;100633.00;;;;5020339;28;20920;-72
2024/01/16 07:07:45;;;;;;;7.15;2.92;;;6.00;67.30;7.90;100636.00;;;;5029012;28;20457;-71
2024/01/16 07:10:17;;;;;;;4.13;2.13;;;6.00;67.60;8.10;100628.00;;;;5030759;28;20223;-71
2024/01/16 07:12:44;;;;;;;3.13;1.50;;;6.00;67.70;8.20;100625.00;;;;5030343;28;20704;-71
2024/01/16 07:15:13;;;;;;;3.15;1.50;;;6.10;67.50;8.10;100629.00;;;;5028836;28;20681;-71
2024/01/16 07:17:42;;;;;;;3.38;1.45;;;6.10;67.20;8.10;100620.00;;;;5036704;28;20207;-71
2024/01/16 07:20:11;;;;;;;5.15;1.60;;;6.10;67.00;8.10;100628.00;;;;5051280;28;20192;-71
2024/01/16 07:22:39;;;;;;;5.10;1.70;;;6.10;66.90;8.10;100624.00;;;;5050462;28;20235;-71
2024/01/16 07:25:07;;;;;;;2.17;1.70;;;6.10;66.70;8.10;100633.00;;;;5029825;28;20243;-71
2024/01/16 07:27:34;;;;;;;4.13;1.83;;;6.10;67.40;8.10;100624.00;;;;5030966;28;20196;-71
2024/01/16 07:30:01;;;;;;;3.28;2.00;;;6.10;66.60;8.10;100628.00;;;;5031420;28;20676;-71
2024/01/16 07:32:28;;;;;;;2.65;1.80;;;6.10;66.60;8.10;100620.00;;;;5030818;28;20318;-71
2024/01/16 07:34:56;;;;;;;3.53;2.28;;;6.10;66.50;8.10;100633.00;;;;5036491;28;20203;-71
2024/01/16 07:37:23;;;;;;;4.13;2.95;;;6.10;66.50;8.10;100633.00;;;;5049810;28;20285;-71
2024/01/16 07:39:51;;;;;;;5.72;3.03;;;6.10;66.40;8.10;100638.00;;;;5034631;28;20665;-71
2024/01/16 07:42:18;;;;;;;4.53;2.47;;;6.10;66.40;8.10;100638.00;;;;5031613;28;20210;-71
2024/01/16 07:44:45;;;;;;;4.43;3.03;;;6.00;66.30;8.10;100640.00;;;;5034561;28;20204;-71
2024/01/16 07:47:12;;;;;;;8.43;4.07;;;6.00;66.30;8.10;100652.00;;;;5034516;28;20220;-71
2024/01/16 07:49:39;;;;;;;5.13;3.22;;;6.00;66.30;8.10;100648.00;;;;5033381;28;20232;-71
2024/01/16 07:52:07;;;;;;;5.85;3.55;;;6.00;66.40;8.00;100642.00;;;;5043297;28;20237;-71
2024/01/16 07:54:34;;;;;;;4.72;2.92;;;6.00;66.30;8.00;100635.00;;;;5039152;28;20639;-71
2024/01/16 07:57:01;;;;;;;4.90;2.80;;;6.00;66.40;8.00;100642.00;;;;5028865;28;20286;-71
2024/01/16 07:59:28;;;;;;;3.67;2.78;;;6.00;66.40;8.00;100645.00;;;;5030905;28;21177;-71
2024/01/16 08:01:55;;;;;;;4.75;3.33;;;6.00;66.40;8.00;100640.00;;;;5034495;28;20208;-71
2024/01/16 08:04:23;;;;;;;5.70;2.80;;;6.00;66.40;8.00;100643.00;;;;5014922;28;20201;-71
2024/01/16 08:06:50;;;;;;;3.08;2.55;;;6.00;66.40;8.00;100647.00;;;;5014208;28;20662;-71
2024/01/16 08:09:19;;;;;;;5.22;2.53;;;6.00;66.40;8.00;100646.00;;;;5033745;28;20203;-71
2024/01/16 08:11:46;;;;;;;5.40;3.30;;;6.00;66.50;8.00;100645.00;;;;5032824;28;20692;-71
2024/01/16 08:14:14;;;;;;;4.38;2.65;;;5.90;66.50;8.00;100650.00;;;;5034042;28;20246;-71
2024/01/16 08:16:40;;;;;;;8.15;3.30;;;6.00;66.60;8.00;100644.00;;;;5034030;28;20188;-71
2024/01/16 08:19:08;;;;;;;6.80;3.00;;;6.00;66.60;8.00;100643.00;;;;5032770;28;20196;-71
2024/01/16 08:21:35;;;;;;;3.65;2.72;;;5.90;67.20;8.00;100638.00;;;;5031787;28;20197;-71
2024/01/16 08:24:02;;;;;;;5.28;2.83;;;6.00;66.60;8.10;100644.00;;;;5033716;28;20220;-71
2024/01/16 08:26:30;;;;;;;6.38;3.25;;;6.00;66.60;8.00;100635.00;;;;5046204;28;20246;-71
2024/01/16 08:28:58;;;;;;;6.60;2.80;;;6.00;66.60;8.00;100642.00;;;;5053768;28;20199;-71
2024/01/16 08:31:25;;;;;;;4.72;2.90;;;6.00;66.50;8.00;100640.00;;;;5034144;28;20223;-71
2024/01/16 08:33:55;;;;;;;5.55;2.30;;;6.00;66.40;8.00;100634.00;;;;5033267;28;20228;-71
2024/01/16 08:36:22;;;;;;;5.00;2.20;;;6.00;66.40;8.00;100638.00;;;;5033621;28;20196;-71
2024/01/16 08:38:50;;;;;;;5.63;1.98;;;6.00;66.30;8.00;100648.00;;;;5030292;28;20200;-71
2024/01/16 08:41:17;;;;;;;8.05;2.38;;;6.00;66.30;8.00;100652.00;;;;5030137;28;20196;-71
2024/01/16 08:43:45;;;;;;;4.82;2.10;;;6.00;66.20;8.00;100645.00;;;;5048319;28;20213;-71
2024/01/16 08:46:12;;;;;;;3.03;2.08;;;6.00;66.20;8.00;100647.00;;;;5039632;28;20198;-71
2024/01/16 08:48:41;;;;;;;6.05;2.80;;;6.00;66.20;8.00;100647.00;;;;5033385;28;20741;-71
2024/01/16 08:51:13;;;;;;;3.55;2.10;;;6.00;66.10;8.00;100640.00;;;;5030042;28;20227;-71
2024/01/16 08:53:41;;;;;;;3.80;1.90;;;6.00;66.00;8.00;100639.00;;;;5032611;28;20747;-71
2024/01/16 08:56:08;;;;;;;3.92;1.80;;;6.00;66.10;8.00;100641.00;;;;5030823;28;20212;-71
2024/01/16 08:58:38;;;;;;;4.00;1.90;;;6.00;66.00;8.00;100644.00;;;;5029986;28;20200;-71
2024/01/16 09:01:07;;;;;;;4.72;1.92;;;6.00;66.10;8.00;100651.00;;;;5046462;28;20284;-71
2024/01/16 09:03:34;;;;;;;2.17;1.60;;;6.00;66.10;8.00;100648.00;;;;5032600;28;20203;-71
2024/01/16 09:06:02;;;;;;;3.50;2.22;;;6.00;66.00;8.00;100646.00;;;;5033239;28;20659;-71
2024/01/16 09:08:30;;;;;;;3.58;1.67;;;6.00;65.90;8.00;100645.00;;;;5033012;28;20200;-71
2024/01/16 09:10:57;;;;;;;3.75;2.30;;;6.00;65.90;8.00;100646.00;;;;5031240;28;20665;-71
2024/01/16 09:13:24;;;;;;;6.38;2.03;;;6.00;65.80;8.00;100642.00;;;;5032908;28;20712;-70
2024/01/16 09:15:52;;;;;;;4.90;2.20;;;6.00;65.80;8.00;100644.00;;;;5032898;28;20665;-70
2024/01/16 09:18:20;;;;;;;4.75;1.70;;;6.00;65.80;8.00;100641.00;;;;5052463;28;20486;-71
2024/01/16 09:20:48;;;;;;;4.28;2.20;;;6.10;65.80;8.10;100651.00;;;;5044639;28;20207;-71
2024/01/16 09:23:15;;;;;;;4.15;1.73;;;6.10;65.80;8.00;100648.00;;;;5031204;28;20236;-71
2024/01/16 09:25:42;;;;;;;4.07;2.17;;;6.10;65.70;8.10;100649.00;;;;5029397;28;20220;-71
2024/01/16 09:28:09;;;;;;;4.18;1.98;;;6.10;65.60;8.10;100646.00;;;;5032419;28;20212;-71
2024/01/16 09:30:36;;;;;;;6.70;2.40;;;6.10;65.60;8.10;100633.00;;;;5032954;28;20319;-71
2024/01/16 09:33:06;;;;;;;3.67;2.08;;;6.10;65.60;8.10;100648.00;;;;5033139;28;20257;-71
2024/01/16 09:35:35;;;;;;;3.40;1.90;;;6.10;65.50;8.10;100649.00;;;;5021445;28;20215;-71
2024/01/16 09:38:02;;;;;;;4.45;2.00;;;6.10;65.60;8.10;100646.00;;;;5023190;28;20203;-71
2024/01/16 09:40:29;;;;;;;5.18;1.77;;;6.20;65.50;8.10;100650.00;;;;5032121;28;20620;-71
2024/01/16 09:42:56;;;;;;;3.05;1.90;;;6.20;65.40;8.00;100648.00;;;;5032856;28;20292;-71
2024/01/16 09:45:25;;;;;;;3.28;1.77;;;6.20;65.40;8.00;100644.00;;;;5032651;28;20188;-71
2024/01/16 09:47:53;;;;;;;3.70;1.98;;;6.10;65.30;8.10;100648.00;;;;5031132;28;20274;-72
2024/01/16 09:50:21;;;;;;;5.72;2.42;;;6.20;65.40;8.10;100639.00;;;;5035279;28;20211;-71
2024/01/16 09:52:50;;;;;;;3.95;1.98;;;6.20;65.40;8.10;100643.00;;;;5048570;28;20220;-72
2024/01/16 09:55:17;;;;;;;3.80;1.73;;;6.20;65.40;8.10;100634.00;;;;5030813;28;20196;-71
2024/01/16 09:57:47;;;;;;;3.15;2.13;;;6.20;65.40;8.10;100642.00;;;;5030849;28;20211;-71
2024/01/16 10:00:15;;;;;;;4.70;2.20;;;6.20;65.30;8.10;100639.00;;;;5032071;28;20334;-71
2024/01/16 10:02:43;;;;;;;5.20;2.03;;;6.20;65.40;8.10;100635.00;;;;5028704;28;20689;-71
2024/01/16 10:05:12;;;;;;;4.38;2.15;;;6.20;65.30;8.10;100619.00;;;;5027804;28;20211;-71
2024/01/16 10:07:44;;;;;;;3.38;1.85;;;6.20;65.20;8.10;100630.00;;;;5034856;28;20204;-71
2024/01/16 10:10:13;;;;;;;3.40;1.80;;;6.20;65.10;8.10;100634.00;;;;5046441;28;20196;-71
2024/01/16 10:12:41;;;;;;;2.47;1.88;;;6.20;65.00;8.10;100630.00;;;;5023748;28;20224;-71
2024/01/16 10:15:10;;;;;;;3.78;1.90;;;6.20;65.00;8.10;100616.00;;;;5030875;28;20200;-71
2024/01/16 10:17:38;;;;;;;3.63;1.90;;;6.20;65.00;8.10;100616.00;;;;5029523;28;20283;-71
2024/01/16 10:20:07;;;;;;;4.50;1.98;;;6.20;65.10;8.10;100611.00;;;;5028661;28;20215;-71
2024/01/16 10:22:34;;;;;;;4.95;2.00;;;6.20;65.00;8.10;100617.00;;;;5015654;28;20226;-71
2024/01/16 10:25:09;;;;;;;4.85;2.03;;;6.20;65.00;8.10;100621.00;;;;5031723;28;20212;-72
2024/01/16 10:27:41;;;;;;;6.65;2.08;;;6.20;65.00;8.00;100609.00;;;;5029369;28;20204;-71
2024/01/16 10:30:08;;;;;;;3.15;1.85;;;6.20;64.90;8.10;100605.00;;;;5011921;28;20201;-71
2024/01/16 10:32:38;;;;;;;5.85;2.15;;;6.20;64.80;8.00;100595.00;;;;5016378;28;20196;-72
2024/01/16 10:35:08;;;;;;;2.88;1.88;;;6.20;64.80;8.10;100602.00;;;;5031692;28;20688;-72
2024/01/16 10:37:47;;;;;;;5.88;2.20;;;6.20;64.80;8.00;100600.00;;;;5037048;28;20192;-72
2024/01/16 10:40:19;;;;;;;4.53;1.98;;;6.20;64.90;8.10;100607.00;;;;5031491;28;20555;-72
2024/01/16 10:42:48;;;;;;;5.63;2.17;;;6.20;64.90;8.10;100603.00;;;;5041251;28;20189;-72
2024/01/16 10:45:19;;;;;;;5.78;1.95;;;6.20;64.80;8.10;100605.00;;;;5031280;28;20630;-72
2024/01/16 10:47:47;;;;;;;3.30;1.90;;;6.20;65.00;8.20;100617.00;;;;5031578;28;20204;-72
2024/01/16 10:50:15;;;;;;;5.00;1.48;;;6.20;65.10;8.10;100610.00;;;;5029336;28;20287;-72
2024/01/16 10:52:48;;;;;;;3.53;1.92;;;6.30;65.10;8.20;100608.00;;;;5031283;28;20200;-72
2024/01/16 10:55:23;;;;;;;4.10;1.70;;;6.30;65.20;8.30;100602.00;;;;5030288;28;20230;-72
2024/01/16 10:57:52;;;;;;;5.07;1.45;;;6.30;65.20;8.30;100617.00;;;;5030197;28;20202;-72
2024/01/16 11:00:22;;;;;;;4.63;1.92;;;6.40;65.20;8.40;100607.00;;;;5034230;28;20197;-72
2024/01/16 11:02:58;;;;;;;3.53;1.70;;;6.40;65.10;8.30;100608.00;;;;5031495;28;20586;-72
2024/01/16 11:05:26;;;;;;;2.75;1.75;;;6.50;65.60;8.40;100608.00;;;;5030049;28;20199;-72